Terminal Aerodrome Forecast
Issued by NWS Sterling, VA

Current Version | Previous Version | Graphics & Text | Print | Product List | Glossary On
Versions: 1 2 3 4 5 6 7 8 9 10 11 12 13 14 15 16 17
000
FTUS41 KLWX 191732
TAFMRB
TAF
KMRB 191732Z 1918/2018 26006KT P6SM FEW050 FEW110
     FM192200 27007KT P6SM SCT050 BKN090
     FM200900 VRB03KT 5SM BR FEW200
     FM201200 VRB03KT P6SM FEW200=

USA.gov is the U.S. government's official web portal to all federal, state and local government web resources and services.